sensor_id;sensor_type;location;lat;lon;timestamp;temperature;humidity
13848;DHT22;6994;49.752;6.094;2024-03-02T00:00:04;8.20;99.90
13848;DHT22;6994;49.752;6.094;2024-03-02T00:02:30;8.30;99.90
13848;DHT22;6994;49.752;6.094;2024-03-02T00:04:58;8.30;99.90
13848;DHT22;6994;49.752;6.094;2024-03-02T00:07:25;8.30;99.90
13848;DHT22;6994;49.752;6.094;2024-03-02T00:09:53;8.30;99.90
13848;DHT22;6994;49.752;6.094;2024-03-02T00:12:19;8.30;99.90
13848;DHT22;6994;49.752;6.094;2024-03-02T00:14:46;8.20;99.90
13848;DHT22;6994;49.752;6.094;2024-03-02T00:17:17;8.10;99.90
13848;DHT22;6994;49.752;6.094;2024-03-02T00:19:41;8.10;99.90
13848;DHT22;6994;49.752;6.094;2024-03-02T00:22:08;8.10;99.90
13848;DHT22;6994;49.752;6.094;2024-03-02T00:24:35;8.20;99.90
13848;DHT22;6994;49.752;6.094;2024-03-02T00:27:03;8.20;99.90
13848;DHT22;6994;49.752;6.094;2024-03-02T00:29:30;8.30;99.90
13848;DHT22;6994;49.752;6.094;2024-03-02T00:31:57;8.30;99.90
13848;DHT22;6994;49.752;6.094;2024-03-02T00:34:24;8.30;99.90
13848;DHT22;6994;49.752;6.094;2024-03-02T00:36:51;8.20;99.90
13848;DHT22;6994;49.752;6.094;2024-03-02T00:39:18;8.20;99.90
13848;DHT22;6994;49.752;6.094;2024-03-02T00:41:46;8.20;99.90
13848;DHT22;6994;49.752;6.094;2024-03-02T00:44:13;8.20;99.90
13848;DHT22;6994;49.752;6.094;2024-03-02T00:46:42;8.40;99.90
13848;DHT22;6994;49.752;6.094;2024-03-02T00:49:21;8.50;99.90
13848;DHT22;6994;49.752;6.094;2024-03-02T00:51:48;8.50;99.90
13848;DHT22;6994;49.752;6.094;2024-03-02T00:54:21;8.50;99.90
13848;DHT22;6994;49.752;6.094;2024-03-02T00:56:48;8.70;99.90
13848;DHT22;6994;49.752;6.094;2024-03-02T00:59:15;8.70;99.90
13848;DHT22;6994;49.752;6.094;2024-03-02T01:01:42;8.70;99.90
13848;DHT22;6994;49.752;6.094;2024-03-02T01:04:09;8.70;99.90
13848;DHT22;6994;49.752;6.094;2024-03-02T01:06:36;8.70;99.90
13848;DHT22;6994;49.752;6.094;2024-03-02T01:09:04;8.60;99.90
13848;DHT22;6994;49.752;6.094;2024-03-02T01:11:31;8.60;99.90
13848;DHT22;6994;49.752;6.094;2024-03-02T01:13:58;8.80;99.90
13848;DHT22;6994;49.752;6.094;2024-03-02T01:16:25;8.80;99.90
13848;DHT22;6994;49.752;6.094;2024-03-02T01:18:52;8.80;99.90
13848;DHT22;6994;49.752;6.094;2024-03-02T01:21:20;8.80;99.90
13848;DHT22;6994;49.752;6.094;2024-03-02T01:23:47;8.80;99.90
13848;DHT22;6994;49.752;6.094;2024-03-02T01:26:15;8.90;99.90
13848;DHT22;6994;49.752;6.094;2024-03-02T01:28:43;8.90;99.90
13848;DHT22;6994;49.752;6.094;2024-03-02T01:31:11;8.90;99.90
13848;DHT22;6994;49.752;6.094;2024-03-02T01:33:39;8.80;99.90
13848;DHT22;6994;49.752;6.094;2024-03-02T01:36:07;8.70;99.90
13848;DHT22;6994;49.752;6.094;2024-03-02T01:38:35;8.70;99.90
13848;DHT22;6994;49.752;6.094;2024-03-02T01:41:02;8.70;99.90
13848;DHT22;6994;49.752;6.094;2024-03-02T01:43:29;8.70;99.90
13848;DHT22;6994;49.752;6.094;2024-03-02T01:45:56;8.60;99.90
13848;DHT22;6994;49.752;6.094;2024-03-02T01:48:23;8.60;99.90
13848;DHT22;6994;49.752;6.094;2024-03-02T01:50:51;8.50;99.90
13848;DHT22;6994;49.752;6.094;2024-03-02T01:53:18;8.50;99.90
13848;DHT22;6994;49.752;6.094;2024-03-02T01:55:45;8.50;99.90
13848;DHT22;6994;49.752;6.094;2024-03-02T01:58:12;8.50;99.90
13848;DHT22;6994;49.752;6.094;2024-03-02T02:00:39;8.50;99.90
13848;DHT22;6994;49.752;6.094;2024-03-02T02:03:07;8.50;99.90
13848;DHT22;6994;49.752;6.094;2024-03-02T02:05:34;8.40;99.90
13848;DHT22;6994;49.752;6.094;2024-03-02T02:08:01;8.40;99.90
13848;DHT22;6994;49.752;6.094;2024-03-02T02:10:28;8.60;99.90
13848;DHT22;6994;49.752;6.094;2024-03-02T02:12:55;8.70;99.90
13848;DHT22;6994;49.752;6.094;2024-03-02T02:15:26;8.70;99.90
13848;DHT22;6994;49.752;6.094;2024-03-02T02:17:53;8.70;99.90
13848;DHT22;6994;49.752;6.094;2024-03-02T02:20:20;8.60;99.90
13848;DHT22;6994;49.752;6.094;2024-03-02T02:22:59;8.60;99.90
13848;DHT22;6994;49.752;6.094;2024-03-02T02:25:26;8.60;99.90
13848;DHT22;6994;49.752;6.094;2024-03-02T02:27:53;8.60;99.90
13848;DHT22;6994;49.752;6.094;2024-03-02T02:30:22;8.70;99.90
13848;DHT22;6994;49.752;6.094;2024-03-02T02:32:48;8.70;99.90
13848;DHT22;6994;49.752;6.094;2024-03-02T02:35:15;8.70;99.90
13848;DHT22;6994;49.752;6.094;2024-03-02T02:37:42;8.70;99.90
13848;DHT22;6994;49.752;6.094;2024-03-02T02:40:09;8.80;99.90
13848;DHT22;6994;49.752;6.094;2024-03-02T02:42:36;8.80;99.90
13848;DHT22;6994;49.752;6.094;2024-03-02T02:45:05;9.00;99.90
13848;DHT22;6994;49.752;6.094;2024-03-02T02:47:32;8.90;99.90
13848;DHT22;6994;49.752;6.094;2024-03-02T02:49:59;8.90;99.90
13848;DHT22;6994;49.752;6.094;2024-03-02T02:52:30;8.80;99.90
13848;DHT22;6994;49.752;6.094;2024-03-02T02:54:53;8.90;99.90
13848;DHT22;6994;49.752;6.094;2024-03-02T02:57:20;8.90;99.90
13848;DHT22;6994;49.752;6.094;2024-03-02T02:59:48;8.80;99.90
13848;DHT22;6994;49.752;6.094;2024-03-02T03:02:15;8.70;99.90
13848;DHT22;6994;49.752;6.094;2024-03-02T03:04:42;8.60;99.90
13848;DHT22;6994;49.752;6.094;2024-03-02T03:07:09;8.50;99.90
13848;DHT22;6994;49.752;6.094;2024-03-02T03:09:37;8.40;99.90
13848;DHT22;6994;49.752;6.094;2024-03-02T03:12:04;8.30;99.90
13848;DHT22;6994;49.752;6.094;2024-03-02T03:14:31;8.50;99.90
13848;DHT22;6994;49.752;6.094;2024-03-02T03:16:59;8.40;99.90
13848;DHT22;6994;49.752;6.094;2024-03-02T03:19:26;8.40;99.90
13848;DHT22;6994;49.752;6.094;2024-03-02T03:21:53;8.40;99.90
13848;DHT22;6994;49.752;6.094;2024-03-02T03:24:21;8.20;99.90
13848;DHT22;6994;49.752;6.094;2024-03-02T03:26:48;8.20;99.90
13848;DHT22;6994;49.752;6.094;2024-03-02T03:29:16;8.10;99.90
13848;DHT22;6994;49.752;6.094;2024-03-02T03:31:43;8.10;99.90
13848;DHT22;6994;49.752;6.094;2024-03-02T03:34:10;8.10;99.90
13848;DHT22;6994;49.752;6.094;2024-03-02T03:36:37;8.10;99.90
13848;DHT22;6994;49.752;6.094;2024-03-02T03:39:04;8.00;99.90
13848;DHT22;6994;49.752;6.094;2024-03-02T03:41:32;8.00;99.90
13848;DHT22;6994;49.752;6.094;2024-03-02T03:43:59;8.00;99.90
13848;DHT22;6994;49.752;6.094;2024-03-02T03:46:26;8.00;99.90
13848;DHT22;6994;49.752;6.094;2024-03-02T03:48:53;8.00;99.90
13848;DHT22;6994;49.752;6.094;2024-03-02T03:51:20;8.00;99.90
13848;DHT22;6994;49.752;6.094;2024-03-02T03:53:48;8.00;99.90
13848;DHT22;6994;49.752;6.094;2024-03-02T03:56:15;7.90;99.90
13848;DHT22;6994;49.752;6.094;2024-03-02T03:58:42;7.90;99.90
13848;DHT22;6994;49.752;6.094;2024-03-02T04:01:09;7.90;99.90
13848;DHT22;6994;49.752;6.094;2024-03-02T04:03:37;7.90;99.90
13848;DHT22;6994;49.752;6.094;2024-03-02T04:06:04;8.10;99.90
13848;DHT22;6994;49.752;6.094;2024-03-02T04:08:31;8.10;99.90
13848;DHT22;6994;49.752;6.094;2024-03-02T04:10:58;8.30;99.90
13848;DHT22;6994;49.752;6.094;2024-03-02T04:13:25;8.30;99.90
13848;DHT22;6994;49.752;6.094;2024-03-02T04:15:52;8.30;99.90
13848;DHT22;6994;49.752;6.094;2024-03-02T04:18:20;8.20;99.90
13848;DHT22;6994;49.752;6.094;2024-03-02T04:20:47;8.10;99.90
13848;DHT22;6994;49.752;6.094;2024-03-02T04:23:14;8.00;99.90
13848;DHT22;6994;49.752;6.094;2024-03-02T04:25:41;8.00;99.90
13848;DHT22;6994;49.752;6.094;2024-03-02T04:28:08;7.90;99.90
13848;DHT22;6994;49.752;6.094;2024-03-02T04:30:36;8.10;99.90
13848;DHT22;6994;49.752;6.094;2024-03-02T04:33:03;8.10;99.90
13848;DHT22;6994;49.752;6.094;2024-03-02T04:35:30;8.10;99.90
13848;DHT22;6994;49.752;6.094;2024-03-02T04:37:57;8.10;99.90
13848;DHT22;6994;49.752;6.094;2024-03-02T04:40:24;8.20;99.90
13848;DHT22;6994;49.752;6.094;2024-03-02T04:42:52;8.20;99.90
13848;DHT22;6994;49.752;6.094;2024-03-02T04:45:19;8.10;99.90
13848;DHT22;6994;49.752;6.094;2024-03-02T04:47:47;8.20;99.90
13848;DHT22;6994;49.752;6.094;2024-03-02T04:50:15;8.20;99.90
13848;DHT22;6994;49.752;6.094;2024-03-02T04:52:42;8.20;99.90
13848;DHT22;6994;49.752;6.094;2024-03-02T04:55:09;8.10;99.90
13848;DHT22;6994;49.752;6.094;2024-03-02T04:57:37;8.00;99.90
13848;DHT22;6994;49.752;6.094;2024-03-02T05:00:05;8.00;99.90
13848;DHT22;6994;49.752;6.094;2024-03-02T05:02:32;8.00;99.90
13848;DHT22;6994;49.752;6.094;2024-03-02T05:05:00;7.90;99.90
13848;DHT22;6994;49.752;6.094;2024-03-02T05:07:27;7.90;99.90
13848;DHT22;6994;49.752;6.094;2024-03-02T05:09:54;7.90;99.90
13848;DHT22;6994;49.752;6.094;2024-03-02T05:12:22;7.90;99.90
13848;DHT22;6994;49.752;6.094;2024-03-02T05:15:07;7.80;99.90
13848;DHT22;6994;49.752;6.094;2024-03-02T05:17:34;8.00;99.90
13848;DHT22;6994;49.752;6.094;2024-03-02T05:20:02;8.10;99.90
13848;DHT22;6994;49.752;6.094;2024-03-02T05:22:29;8.10;99.90
13848;DHT22;6994;49.752;6.094;2024-03-02T05:24:56;8.00;99.90
13848;DHT22;6994;49.752;6.094;2024-03-02T05:27:24;8.00;99.90
13848;DHT22;6994;49.752;6.094;2024-03-02T05:29:51;7.90;99.90
13848;DHT22;6994;49.752;6.094;2024-03-02T05:32:18;7.90;99.90
13848;DHT22;6994;49.752;6.094;2024-03-02T05:34:45;7.80;99.90
13848;DHT22;6994;49.752;6.094;2024-03-02T05:37:12;7.80;99.90
13848;DHT22;6994;49.752;6.094;2024-03-02T05:39:40;7.90;99.90
13848;DHT22;6994;49.752;6.094;2024-03-02T05:42:07;7.80;99.90
13848;DHT22;6994;49.752;6.094;2024-03-02T05:44:35;7.80;99.90
13848;DHT22;6994;49.752;6.094;2024-03-02T05:47:01;7.80;99.90
13848;DHT22;6994;49.752;6.094;2024-03-02T05:49:28;7.80;99.90
13848;DHT22;6994;49.752;6.094;2024-03-02T05:51:56;7.70;99.90
13848;DHT22;6994;49.752;6.094;2024-03-02T05:54:23;7.70;99.90
13848;DHT22;6994;49.752;6.094;2024-03-02T05:56:50;7.70;99.90
13848;DHT22;6994;49.752;6.094;2024-03-02T05:59:17;7.60;99.90
13848;DHT22;6994;49.752;6.094;2024-03-02T06:01:45;7.60;99.90
13848;DHT22;6994;49.752;6.094;2024-03-02T06:04:12;7.60;99.90
13848;DHT22;6994;49.752;6.094;2024-03-02T06:06:39;7.60;99.90
13848;DHT22;6994;49.752;6.094;2024-03-02T06:09:06;7.50;99.90
13848;DHT22;6994;49.752;6.094;2024-03-02T06:11:34;7.50;99.90
13848;DHT22;6994;49.752;6.094;2024-03-02T06:14:00;7.50;99.90
13848;DHT22;6994;49.752;6.094;2024-03-02T06:16:28;7.50;99.90
13848;DHT22;6994;49.752;6.094;2024-03-02T06:18:55;7.60;99.90
13848;DHT22;6994;49.752;6.094;2024-03-02T06:21:22;7.60;99.90
13848;DHT22;6994;49.752;6.094;2024-03-02T06:23:49;7.60;99.90
13848;DHT22;6994;49.752;6.094;2024-03-02T06:26:16;7.60;99.90
13848;DHT22;6994;49.752;6.094;2024-03-02T06:28:44;7.60;99.90
13848;DHT22;6994;49.752;6.094;2024-03-02T06:31:11;7.60;99.90
13848;DHT22;6994;49.752;6.094;2024-03-02T06:33:38;7.80;99.90
13848;DHT22;6994;49.752;6.094;2024-03-02T06:36:05;7.90;99.90
13848;DHT22;6994;49.752;6.094;2024-03-02T06:38:32;8.10;99.90
13848;DHT22;6994;49.752;6.094;2024-03-02T06:41:00;8.20;99.90
13848;DHT22;6994;49.752;6.094;2024-03-02T06:43:27;8.30;99.90
13848;DHT22;6994;49.752;6.094;2024-03-02T06:45:54;8.30;99.90
13848;DHT22;6994;49.752;6.094;2024-03-02T06:48:21;8.40;99.90
13848;DHT22;6994;49.752;6.094;2024-03-02T06:50:49;8.40;99.90
13848;DHT22;6994;49.752;6.094;2024-03-02T06:53:16;8.50;99.90
13848;DHT22;6994;49.752;6.094;2024-03-02T06:55:46;8.50;99.90
13848;DHT22;6994;49.752;6.094;2024-03-02T06:58:13;8.60;99.90
13848;DHT22;6994;49.752;6.094;2024-03-02T07:00:40;8.60;99.90
13848;DHT22;6994;49.752;6.094;2024-03-02T07:03:07;8.50;99.90
13848;DHT22;6994;49.752;6.094;2024-03-02T07:05:35;8.30;99.90
13848;DHT22;6994;49.752;6.094;2024-03-02T07:08:02;8.50;99.90
13848;DHT22;6994;49.752;6.094;2024-03-02T07:10:29;8.50;99.90
13848;DHT22;6994;49.752;6.094;2024-03-02T07:12:56;8.60;99.90
13848;DHT22;6994;49.752;6.094;2024-03-02T07:15:23;8.60;99.90
13848;DHT22;6994;49.752;6.094;2024-03-02T07:17:53;8.80;99.90
13848;DHT22;6994;49.752;6.094;2024-03-02T07:20:20;8.80;99.90
13848;DHT22;6994;49.752;6.094;2024-03-02T07:22:48;8.70;99.90
13848;DHT22;6994;49.752;6.094;2024-03-02T07:25:15;8.80;99.90
13848;DHT22;6994;49.752;6.094;2024-03-02T07:27:42;8.80;99.90
13848;DHT22;6994;49.752;6.094;2024-03-02T07:30:09;9.00;99.90
13848;DHT22;6994;49.752;6.094;2024-03-02T07:32:37;9.10;99.90
13848;DHT22;6994;49.752;6.094;2024-03-02T07:35:05;9.10;99.90
13848;DHT22;6994;49.752;6.094;2024-03-02T07:37:32;9.10;99.90
13848;DHT22;6994;49.752;6.094;2024-03-02T07:39:59;9.00;99.90
13848;DHT22;6994;49.752;6.094;2024-03-02T07:42:26;8.90;99.90
13848;DHT22;6994;49.752;6.094;2024-03-02T07:44:53;8.80;99.90
13848;DHT22;6994;49.752;6.094;2024-03-02T07:47:21;8.70;99.90
13848;DHT22;6994;49.752;6.094;2024-03-02T07:49:48;8.90;99.90
13848;DHT22;6994;49.752;6.094;2024-03-02T07:52:15;9.20;99.90
13848;DHT22;6994;49.752;6.094;2024-03-02T07:54:42;9.50;99.90
13848;DHT22;6994;49.752;6.094;2024-03-02T07:57:09;9.40;99.90
13848;DHT22;6994;49.752;6.094;2024-03-02T07:59:37;9.30;99.90
13848;DHT22;6994;49.752;6.094;2024-03-02T08:02:04;9.20;99.90
13848;DHT22;6994;49.752;6.094;2024-03-02T08:04:31;9.00;99.90
13848;DHT22;6994;49.752;6.094;2024-03-02T08:06:58;8.90;99.90
13848;DHT22;6994;49.752;6.094;2024-03-02T08:09:25;8.90;99.90
13848;DHT22;6994;49.752;6.094;2024-03-02T08:11:53;8.90;99.90
13848;DHT22;6994;49.752;6.094;2024-03-02T08:14:20;8.80;99.90
13848;DHT22;6994;49.752;6.094;2024-03-02T08:16:47;8.90;99.90
13848;DHT22;6994;49.752;6.094;2024-03-02T08:19:14;8.90;99.90
13848;DHT22;6994;49.752;6.094;2024-03-02T08:21:42;9.00;99.90
13848;DHT22;6994;49.752;6.094;2024-03-02T08:24:09;9.20;99.90
13848;DHT22;6994;49.752;6.094;2024-03-02T08:26:36;9.40;99.90
13848;DHT22;6994;49.752;6.094;2024-03-02T08:29:03;9.50;99.90
13848;DHT22;6994;49.752;6.094;2024-03-02T08:31:30;9.50;99.90
13848;DHT22;6994;49.752;6.094;2024-03-02T08:33:57;9.50;99.90
13848;DHT22;6994;49.752;6.094;2024-03-02T08:36:25;9.40;99.90
13848;DHT22;6994;49.752;6.094;2024-03-02T08:38:52;9.60;99.90
13848;DHT22;6994;49.752;6.094;2024-03-02T08:41:19;9.60;99.90
13848;DHT22;6994;49.752;6.094;2024-03-02T08:43:46;9.70;99.90
13848;DHT22;6994;49.752;6.094;2024-03-02T08:46:13;9.70;99.90
13848;DHT22;6994;49.752;6.094;2024-03-02T08:48:41;9.80;99.90
13848;DHT22;6994;49.752;6.094;2024-03-02T08:51:08;9.80;99.90
13848;DHT22;6994;49.752;6.094;2024-03-02T08:53:35;9.90;99.90
13848;DHT22;6994;49.752;6.094;2024-03-02T08:56:02;9.90;99.90
13848;DHT22;6994;49.752;6.094;2024-03-02T08:58:30;9.90;99.90
13848;DHT22;6994;49.752;6.094;2024-03-02T09:00:58;9.90;99.90
13848;DHT22;6994;49.752;6.094;2024-03-02T09:03:25;9.90;99.90
13848;DHT22;6994;49.752;6.094;2024-03-02T09:05:52;9.90;99.90
13848;DHT22;6994;49.752;6.094;2024-03-02T09:08:20;10.00;99.90
13848;DHT22;6994;49.752;6.094;2024-03-02T09:10:48;10.10;99.90
13848;DHT22;6994;49.752;6.094;2024-03-02T09:13:16;10.20;99.90
13848;DHT22;6994;49.752;6.094;2024-03-02T09:15:44;10.20;99.90
13848;DHT22;6994;49.752;6.094;2024-03-02T09:18:12;10.30;99.90
13848;DHT22;6994;49.752;6.094;2024-03-02T09:20:40;10.30;99.90
13848;DHT22;6994;49.752;6.094;2024-03-02T09:23:08;10.30;99.90
13848;DHT22;6994;49.752;6.094;2024-03-02T09:25:36;10.30;99.90
13848;DHT22;6994;49.752;6.094;2024-03-02T09:28:03;10.30;99.90
13848;DHT22;6994;49.752;6.094;2024-03-02T09:30:30;10.30;99.90
13848;DHT22;6994;49.752;6.094;2024-03-02T09:32:57;10.20;99.90
13848;DHT22;6994;49.752;6.094;2024-03-02T09:35:25;10.40;99.90
13848;DHT22;6994;49.752;6.094;2024-03-02T09:37:52;10.40;99.90
13848;DHT22;6994;49.752;6.094;2024-03-02T09:40:21;10.60;99.90
13848;DHT22;6994;49.752;6.094;2024-03-02T09:42:46;10.60;99.90
13848;DHT22;6994;49.752;6.094;2024-03-02T09:45:14;10.70;99.90
13848;DHT22;6994;49.752;6.094;2024-03-02T09:47:41;10.70;99.90
13848;DHT22;6994;49.752;6.094;2024-03-02T09:50:09;10.80;99.90
13848;DHT22;6994;49.752;6.094;2024-03-02T09:52:36;10.90;99.90
13848;DHT22;6994;49.752;6.094;2024-03-02T09:55:03;10.90;99.90
13848;DHT22;6994;49.752;6.094;2024-03-02T09:57:30;10.90;99.90
13848;DHT22;6994;49.752;6.094;2024-03-02T09:59:58;11.10;99.90
13848;DHT22;6994;49.752;6.094;2024-03-02T10:02:25;11.10;99.90
13848;DHT22;6994;49.752;6.094;2024-03-02T10:04:53;11.20;99.90
13848;DHT22;6994;49.752;6.094;2024-03-02T10:07:20;11.20;99.90
13848;DHT22;6994;49.752;6.094;2024-03-02T10:09:48;11.40;99.90
13848;DHT22;6994;49.752;6.094;2024-03-02T10:12:15;11.40;99.90
13848;DHT22;6994;49.752;6.094;2024-03-02T10:14:42;11.40;99.90
13848;DHT22;6994;49.752;6.094;2024-03-02T10:17:10;11.50;99.90
13848;DHT22;6994;49.752;6.094;2024-03-02T10:19:36;11.60;99.90
13848;DHT22;6994;49.752;6.094;2024-03-02T10:22:04;11.60;99.90
13848;DHT22;6994;49.752;6.094;2024-03-02T10:24:36;11.60;99.90
13848;DHT22;6994;49.752;6.094;2024-03-02T10:27:06;11.60;99.90
13848;DHT22;6994;49.752;6.094;2024-03-02T10:29:30;11.50;99.90
13848;DHT22;6994;49.752;6.094;2024-03-02T10:31:58;11.50;99.90
13848;DHT22;6994;49.752;6.094;2024-03-02T10:34:25;11.50;99.90
13848;DHT22;6994;49.752;6.094;2024-03-02T10:36:53;11.60;99.90
13848;DHT22;6994;49.752;6.094;2024-03-02T10:39:20;11.60;99.90
13848;DHT22;6994;49.752;6.094;2024-03-02T10:41:47;11.70;99.90
13848;DHT22;6994;49.752;6.094;2024-03-02T10:44:14;11.70;99.90
13848;DHT22;6994;49.752;6.094;2024-03-02T10:46:41;11.90;99.90
13848;DHT22;6994;49.752;6.094;2024-03-02T10:49:09;12.00;99.90
13848;DHT22;6994;49.752;6.094;2024-03-02T10:51:36;12.20;99.90
13848;DHT22;6994;49.752;6.094;2024-03-02T10:54:03;12.30;99.90
13848;DHT22;6994;49.752;6.094;2024-03-02T10:56:31;12.40;99.90
13848;DHT22;6994;49.752;6.094;2024-03-02T10:59:51;12.40;99.90
13848;DHT22;6994;49.752;6.094;2024-03-02T11:01:31;12.50;99.90
13848;DHT22;6994;49.752;6.094;2024-03-02T11:03:58;12.60;99.90
13848;DHT22;6994;49.752;6.094;2024-03-02T11:06:26;12.70;99.90
13848;DHT22;6994;49.752;6.094;2024-03-02T11:08:53;12.80;99.90
13848;DHT22;6994;49.752;6.094;2024-03-02T11:11:21;12.80;99.90
13848;DHT22;6994;49.752;6.094;2024-03-02T11:13:49;12.90;99.90
13848;DHT22;6994;49.752;6.094;2024-03-02T11:16:36;13.10;99.90
13848;DHT22;6994;49.752;6.094;2024-03-02T11:19:08;13.30;99.90
13848;DHT22;6994;49.752;6.094;2024-03-02T11:21:33;13.30;99.90
13848;DHT22;6994;49.752;6.094;2024-03-02T11:24:15;13.20;99.90
13848;DHT22;6994;49.752;6.094;2024-03-02T11:26:28;13.30;99.90
13848;DHT22;6994;49.752;6.094;2024-03-02T11:28:55;13.10;99.90
13848;DHT22;6994;49.752;6.094;2024-03-02T11:31:22;13.00;99.90
13848;DHT22;6994;49.752;6.094;2024-03-02T11:33:49;12.80;99.90
13848;DHT22;6994;49.752;6.094;2024-03-02T11:36:17;12.70;99.90
13848;DHT22;6994;49.752;6.094;2024-03-02T11:38:45;12.70;99.90
13848;DHT22;6994;49.752;6.094;2024-03-02T11:41:13;12.70;99.90
13848;DHT22;6994;49.752;6.094;2024-03-02T11:43:40;12.70;99.90
13848;DHT22;6994;49.752;6.094;2024-03-02T11:46:07;12.70;99.90
13848;DHT22;6994;49.752;6.094;2024-03-02T11:48:38;12.90;99.90
13848;DHT22;6994;49.752;6.094;2024-03-02T11:51:05;13.00;99.90
13848;DHT22;6994;49.752;6.094;2024-03-02T11:53:33;13.20;99.90
13848;DHT22;6994;49.752;6.094;2024-03-02T11:56:00;13.20;99.90
13848;DHT22;6994;49.752;6.094;2024-03-02T11:58:27;13.60;99.90
13848;DHT22;6994;49.752;6.094;2024-03-02T12:00:55;13.90;99.90
13848;DHT22;6994;49.752;6.094;2024-03-02T12:03:23;14.10;99.90
13848;DHT22;6994;49.752;6.094;2024-03-02T12:05:51;14.30;99.90
13848;DHT22;6994;49.752;6.094;2024-03-02T12:08:19;14.80;99.90
13848;DHT22;6994;49.752;6.094;2024-03-02T12:11:00;15.30;99.90
13848;DHT22;6994;49.752;6.094;2024-03-02T12:13:26;15.30;99.90
13848;DHT22;6994;49.752;6.094;2024-03-02T12:15:53;15.90;99.90
13848;DHT22;6994;49.752;6.094;2024-03-02T12:18:20;16.40;99.90
13848;DHT22;6994;49.752;6.094;2024-03-02T12:20:48;16.60;99.90
13848;DHT22;6994;49.752;6.094;2024-03-02T12:23:15;16.50;99.90
13848;DHT22;6994;49.752;6.094;2024-03-02T12:25:43;16.30;99.90
13848;DHT22;6994;49.752;6.094;2024-03-02T12:28:11;16.00;99.90
13848;DHT22;6994;49.752;6.094;2024-03-02T12:30:39;15.70;99.90
13848;DHT22;6994;49.752;6.094;2024-03-02T12:33:07;15.70;99.90
13848;DHT22;6994;49.752;6.094;2024-03-02T12:35:34;15.50;99.90
13848;DHT22;6994;49.752;6.094;2024-03-02T12:38:01;15.60;99.90
13848;DHT22;6994;49.752;6.094;2024-03-02T12:40:28;16.10;99.90
13848;DHT22;6994;49.752;6.094;2024-03-02T12:42:55;16.50;99.90
13848;DHT22;6994;49.752;6.094;2024-03-02T12:45:23;17.00;99.90
13848;DHT22;6994;49.752;6.094;2024-03-02T12:47:52;17.20;99.90
13848;DHT22;6994;49.752;6.094;2024-03-02T12:50:20;17.20;99.90
13848;DHT22;6994;49.752;6.094;2024-03-02T12:52:53;17.00;99.90
13848;DHT22;6994;49.752;6.094;2024-03-02T12:55:21;16.90;99.90
13848;DHT22;6994;49.752;6.094;2024-03-02T12:57:49;16.80;99.90
13848;DHT22;6994;49.752;6.094;2024-03-02T13:00:17;16.70;99.90
13848;DHT22;6994;49.752;6.094;2024-03-02T13:02:43;16.30;99.90
13848;DHT22;6994;49.752;6.094;2024-03-02T13:05:10;16.00;99.90
13848;DHT22;6994;49.752;6.094;2024-03-02T13:07:40;15.80;99.90
13848;DHT22;6994;49.752;6.094;2024-03-02T13:10:10;15.90;99.90
13848;DHT22;6994;49.752;6.094;2024-03-02T13:12:37;15.90;99.90
13848;DHT22;6994;49.752;6.094;2024-03-02T13:15:05;15.60;99.90
13848;DHT22;6994;49.752;6.094;2024-03-02T13:17:35;15.60;99.90
13848;DHT22;6994;49.752;6.094;2024-03-02T13:20:02;15.50;99.90
13848;DHT22;6994;49.752;6.094;2024-03-02T13:22:30;15.40;99.90
13848;DHT22;6994;49.752;6.094;2024-03-02T13:24:57;15.40;99.90
13848;DHT22;6994;49.752;6.094;2024-03-02T13:27:24;15.30;99.90
13848;DHT22;6994;49.752;6.094;2024-03-02T13:29:51;15.20;99.90
13848;DHT22;6994;49.752;6.094;2024-03-02T13:32:19;15.00;99.90
13848;DHT22;6994;49.752;6.094;2024-03-02T13:34:47;15.00;99.90
13848;DHT22;6994;49.752;6.094;2024-03-02T13:37:14;14.90;99.90
13848;DHT22;6994;49.752;6.094;2024-03-02T13:39:42;14.90;99.90
13848;DHT22;6994;49.752;6.094;2024-03-02T13:42:13;15.30;99.90
13848;DHT22;6994;49.752;6.094;2024-03-02T13:44:36;15.60;99.90
13848;DHT22;6994;49.752;6.094;2024-03-02T13:47:03;15.60;99.90
13848;DHT22;6994;49.752;6.094;2024-03-02T13:49:31;15.50;99.90
13848;DHT22;6994;49.752;6.094;2024-03-02T13:52:00;15.40;99.90
13848;DHT22;6994;49.752;6.094;2024-03-02T13:54:27;15.30;99.90
13848;DHT22;6994;49.752;6.094;2024-03-02T13:56:55;15.20;99.90
13848;DHT22;6994;49.752;6.094;2024-03-02T13:59:22;15.20;99.90
13848;DHT22;6994;49.752;6.094;2024-03-02T14:01:50;15.20;99.90
13848;DHT22;6994;49.752;6.094;2024-03-02T14:04:17;15.20;99.90
13848;DHT22;6994;49.752;6.094;2024-03-02T14:06:44;15.30;99.90
13848;DHT22;6994;49.752;6.094;2024-03-02T14:09:12;15.30;99.90
13848;DHT22;6994;49.752;6.094;2024-03-02T14:11:40;15.30;99.90
13848;DHT22;6994;49.752;6.094;2024-03-02T14:14:07;15.30;99.90
13848;DHT22;6994;49.752;6.094;2024-03-02T14:16:34;15.20;99.90
13848;DHT22;6994;49.752;6.094;2024-03-02T14:19:02;15.10;99.90
13848;DHT22;6994;49.752;6.094;2024-03-02T14:21:29;15.00;99.90
13848;DHT22;6994;49.752;6.094;2024-03-02T14:23:56;14.90;99.90
13848;DHT22;6994;49.752;6.094;2024-03-02T14:26:23;15.10;99.90
13848;DHT22;6994;49.752;6.094;2024-03-02T14:28:52;14.90;99.90
13848;DHT22;6994;49.752;6.094;2024-03-02T14:31:18;14.80;99.90
13848;DHT22;6994;49.752;6.094;2024-03-02T14:33:45;14.70;99.90
13848;DHT22;6994;49.752;6.094;2024-03-02T14:36:12;14.50;99.90
13848;DHT22;6994;49.752;6.094;2024-03-02T14:38:39;14.40;99.90
13848;DHT22;6994;49.752;6.094;2024-03-02T14:41:07;14.20;99.90
13848;DHT22;6994;49.752;6.094;2024-03-02T14:43:34;14.10;99.90
13848;DHT22;6994;49.752;6.094;2024-03-02T14:46:01;14.00;99.90
13848;DHT22;6994;49.752;6.094;2024-03-02T14:48:29;13.80;99.90
13848;DHT22;6994;49.752;6.094;2024-03-02T14:50:56;13.80;99.90
13848;DHT22;6994;49.752;6.094;2024-03-02T14:53:23;13.80;99.90
13848;DHT22;6994;49.752;6.094;2024-03-02T14:55:51;13.70;99.90
13848;DHT22;6994;49.752;6.094;2024-03-02T14:58:18;13.90;99.90
13848;DHT22;6994;49.752;6.094;2024-03-02T15:00:45;13.90;99.90
13848;DHT22;6994;49.752;6.094;2024-03-02T15:03:12;13.90;99.90
13848;DHT22;6994;49.752;6.094;2024-03-02T15:05:40;13.80;99.90
13848;DHT22;6994;49.752;6.094;2024-03-02T15:08:07;13.80;99.90
13848;DHT22;6994;49.752;6.094;2024-03-02T15:10:34;13.80;99.90
13848;DHT22;6994;49.752;6.094;2024-03-02T15:13:01;13.70;99.90
13848;DHT22;6994;49.752;6.094;2024-03-02T15:15:28;13.90;99.90
13848;DHT22;6994;49.752;6.094;2024-03-02T15:17:56;14.00;99.90
13848;DHT22;6994;49.752;6.094;2024-03-02T15:20:24;14.00;99.90
13848;DHT22;6994;49.752;6.094;2024-03-02T15:22:51;14.00;99.90
13848;DHT22;6994;49.752;6.094;2024-03-02T15:25:18;14.30;99.90
13848;DHT22;6994;49.752;6.094;2024-03-02T15:27:46;14.50;99.90
13848;DHT22;6994;49.752;6.094;2024-03-02T15:30:14;14.60;99.90
13848;DHT22;6994;49.752;6.094;2024-03-02T15:32:41;14.50;99.90
13848;DHT22;6994;49.752;6.094;2024-03-02T15:35:08;14.50;99.90
13848;DHT22;6994;49.752;6.094;2024-03-02T15:37:36;14.40;99.90
13848;DHT22;6994;49.752;6.094;2024-03-02T15:40:03;14.50;99.90
13848;DHT22;6994;49.752;6.094;2024-03-02T15:42:33;14.50;99.90
13848;DHT22;6994;49.752;6.094;2024-03-02T15:45:01;14.30;99.90
13848;DHT22;6994;49.752;6.094;2024-03-02T15:47:29;14.30;99.90
13848;DHT22;6994;49.752;6.094;2024-03-02T15:49:56;14.30;99.90
13848;DHT22;6994;49.752;6.094;2024-03-02T15:52:23;14.20;99.90
13848;DHT22;6994;49.752;6.094;2024-03-02T15:54:50;14.30;99.90